Time;durP1;ratioP1;P1;durP2;ratioP2;P2;SDS_P1;SDS_P2;PMS_P1;PMS_P2;Temp;Humidity;BMP_temperature;BMP_pressure;BME280_temperature;BME280_humidity;BME280_pressure;Samples;Min_cycle;Max_cycle;Signal;HPM_P1;HPM_P2
2021/06/07 00:02:18;;;;;;;13.57;2.20;;;23.60;32.30;;;;;;5062480;28;20029;-77
2021/06/07 00:04:44;;;;;;;11.05;2.10;;;23.50;31.70;;;;;;5060771;28;20032;-78
2021/06/07 00:07:11;;;;;;;4.95;1.27;;;23.70;30.70;;;;;;5051362;28;20033;-77
2021/06/07 00:09:40;;;;;;;5.85;1.25;;;23.50;31.90;;;;;;5060173;28;20079;-77
2021/06/07 00:12:17;;;;;;;6.30;1.35;;;23.50;31.80;;;;;;5066343;28;20078;-76
2021/06/07 00:14:44;;;;;;;6.65;1.98;;;23.50;31.10;;;;;;5078929;28;20029;-76
2021/06/07 00:17:11;;;;;;;4.38;1.83;;;23.50;31.00;;;;;;5083104;28;20513;-75
2021/06/07 00:19:40;;;;;;;8.32;1.92;;;23.20;31.10;;;;;;5079049;28;20082;-76
2021/06/07 00:22:08;;;;;;;7.65;1.83;;;23.20;32.70;;;;;;5078820;28;20029;-76
2021/06/07 00:24:35;;;;;;;10.80;2.03;;;23.10;31.90;;;;;;5077800;28;20395;-75
2021/06/07 00:27:02;;;;;;;5.03;1.73;;;23.30;31.60;;;;;;5060231;28;20036;-77
2021/06/07 00:29:29;;;;;;;5.45;1.58;;;23.50;30.90;;;;;;5077430;28;20107;-76
2021/06/07 00:31:55;;;;;;;4.90;1.73;;;23.30;32.60;;;;;;5077662;28;20355;-77
2021/06/07 00:34:21;;;;;;;5.90;1.42;;;23.30;32.50;;;;;;5078280;28;20029;-76
2021/06/07 00:36:48;;;;;;;6.72;1.55;;;23.40;32.60;;;;;;5078112;28;20012;-77
2021/06/07 00:39:16;;;;;;;7.15;1.55;;;23.20;32.90;;;;;;5077334;28;20032;-76
2021/06/07 00:41:45;;;;;;;6.25;1.45;;;23.30;31.90;;;;;;5077544;28;20024;-76
2021/06/07 00:44:15;;;;;;;11.57;2.80;;;23.20;32.60;;;;;;5077468;28;20024;-75
2021/06/07 00:46:42;;;;;;;8.45;2.15;;;23.40;31.50;;;;;;5077819;28;20039;-76
2021/06/07 00:49:09;;;;;;;5.22;2.15;;;23.10;33.40;;;;;;5071269;28;20052;-77
2021/06/07 00:51:36;;;;;;;8.55;2.63;;;23.20;33.60;;;;;;5077187;28;20074;-76
2021/06/07 00:54:04;;;;;;;10.23;3.10;;;23.50;33.20;;;;;;5076340;28;20452;-76
2021/06/07 00:56:31;;;;;;;9.05;1.95;;;23.40;33.50;;;;;;5059021;28;20032;-76
2021/06/07 00:58:57;;;;;;;4.43;1.50;;;23.40;32.90;;;;;;5059571;28;20043;-76
2021/06/07 01:01:26;;;;;;;7.68;2.50;;;23.40;32.60;;;;;;5076711;28;20423;-76
2021/06/07 01:03:55;;;;;;;6.32;1.75;;;23.20;33.60;;;;;;5059349;28;20024;-76
2021/06/07 01:06:22;;;;;;;8.00;1.65;;;23.20;33.50;;;;;;5076768;28;20169;-76
2021/06/07 01:08:50;;;;;;;9.30;2.97;;;23.20;35.20;;;;;;5059004;28;20130;-76
2021/06/07 01:11:16;;;;;;;9.68;2.40;;;23.20;35.00;;;;;;5076524;28;20387;-76
2021/06/07 01:13:44;;;;;;;13.18;2.42;;;23.10;36.00;;;;;;5076661;28;20016;-76
2021/06/07 01:16:11;;;;;;;17.55;3.30;;;22.90;36.00;;;;;;5059227;28;20412;-76
2021/06/07 01:18:37;;;;;;;11.20;3.28;;;22.80;36.50;;;;;;5064918;28;20380;-77
2021/06/07 01:21:15;;;;;;;12.02;3.17;;;22.50;36.90;;;;;;5058363;28;20067;-76
2021/06/07 01:23:44;;;;;;;9.38;3.80;;;22.40;36.80;;;;;;5050557;28;20040;-76
2021/06/07 01:26:12;;;;;;;11.50;4.57;;;22.20;37.20;;;;;;5068922;28;20020;-76
2021/06/07 01:28:40;;;;;;;17.40;3.08;;;22.00;37.90;;;;;;5057475;28;20028;-78
2021/06/07 01:31:09;;;;;;;12.80;3.08;;;21.80;38.00;;;;;;5074651;28;20033;-76
2021/06/07 01:33:37;;;;;;;13.55;3.13;;;21.70;38.60;;;;;;5072579;28;20027;-76
2021/06/07 01:36:05;;;;;;;13.95;3.65;;;21.60;39.10;;;;;;5067001;28;20028;-77
2021/06/07 01:38:32;;;;;;;18.05;3.40;;;21.20;39.60;;;;;;5074848;28;20051;-76
2021/06/07 01:41:01;;;;;;;23.13;5.10;;;21.00;40.30;;;;;;5060916;28;20033;-75
2021/06/07 01:43:30;;;;;;;10.73;2.92;;;20.90;40.50;;;;;;5057816;28;20374;-76
2021/06/07 01:45:56;;;;;;;14.02;2.92;;;20.70;41.10;;;;;;5075657;28;20101;-75
2021/06/07 01:48:24;;;;;;;11.88;3.47;;;20.60;41.50;;;;;;5070157;28;20063;-75
2021/06/07 01:50:52;;;;;;;12.23;3.08;;;20.40;41.50;;;;;;5050925;28;20020;-75
2021/06/07 01:53:20;;;;;;;10.63;3.60;;;20.40;41.90;;;;;;5075881;28;20505;-76
2021/06/07 01:55:50;;;;;;;12.88;4.00;;;20.30;42.00;;;;;;5048367;28;20104;-76
2021/06/07 01:58:18;;;;;;;7.07;3.33;;;20.20;42.10;;;;;;5060726;28;20110;-77
2021/06/07 02:00:50;;;;;;;12.82;4.97;;;20.10;42.50;;;;;;5077616;28;20016;-77
2021/06/07 02:06:05;;;;;;;16.58;3.45;;;19.90;43.10;;;;;;5063706;28;19915;-76
2021/06/07 02:08:32;;;;;;;11.00;3.47;;;19.80;42.70;;;;;;5057618;28;20032;-76
2021/06/07 02:11:06;;;;;;;21.52;5.38;;;19.70;43.70;;;;;;5057810;28;20150;-76
2021/06/07 02:13:32;;;;;;;10.73;3.33;;;19.70;43.90;;;;;;5039032;28;20332;-76
2021/06/07 02:16:08;;;;;;;10.23;3.53;;;19.60;43.90;;;;;;5056015;28;20035;-75
2021/06/07 02:18:36;;;;;;;16.15;3.67;;;19.50;43.80;;;;;;5064182;28;20029;-76
2021/06/07 02:21:05;;;;;;;10.85;3.38;;;19.50;43.80;;;;;;5039821;28;20372;-76
2021/06/07 02:23:31;;;;;;;10.10;2.35;;;19.40;43.90;;;;;;5059018;28;20020;-76
2021/06/07 02:25:58;;;;;;;10.18;3.95;;;19.30;44.30;;;;;;5075782;28;20028;-76
2021/06/07 02:28:25;;;;;;;11.55;2.65;;;19.20;44.00;;;;;;5073659;28;20043;-77
2021/06/07 02:30:51;;;;;;;11.32;2.88;;;19.30;44.00;;;;;;5038165;28;20423;-76
2021/06/07 02:33:18;;;;;;;20.75;3.28;;;19.20;44.00;;;;;;5055323;28;20349;-76
2021/06/07 02:35:45;;;;;;;12.15;2.72;;;19.10;44.20;;;;;;5037940;28;20055;-77
2021/06/07 02:38:13;;;;;;;19.65;4.60;;;19.20;44.40;;;;;;5055670;28;20108;-76
2021/06/07 02:40:43;;;;;;;10.77;2.55;;;19.20;44.30;;;;;;5055531;28;20068;-76
2021/06/07 02:43:10;;;;;;;8.95;1.92;;;19.20;43.70;;;;;;5055459;28;20356;-76
2021/06/07 02:45:36;;;;;;;8.88;2.90;;;19.10;43.80;;;;;;5072354;28;20036;-76
2021/06/07 02:48:04;;;;;;;16.00;3.05;;;19.10;43.80;;;;;;5057629;28;20531;-77
2021/06/07 02:50:37;;;;;;;10.05;2.05;;;19.10;42.50;;;;;;5079526;28;20025;-76
2021/06/07 02:53:04;;;;;;;16.33;3.22;;;19.10;41.80;;;;;;5077435;28;20051;-77
2021/06/07 02:55:35;;;;;;;10.40;2.50;;;19.10;43.40;;;;;;5075978;28;20376;-76
2021/06/07 02:58:01;;;;;;;9.65;2.55;;;19.10;43.30;;;;;;5058100;28;20020;-75
2021/06/07 03:00:33;;;;;;;16.27;3.00;;;19.00;43.70;;;;;;5074898;28;20094;-76
2021/06/07 03:03:01;;;;;;;10.90;2.85;;;19.00;44.10;;;;;;5077657;28;20032;-77
2021/06/07 03:05:29;;;;;;;9.23;3.10;;;19.00;43.30;;;;;;5084573;28;20052;-76
2021/06/07 03:07:55;;;;;;;14.20;3.83;;;19.00;44.40;;;;;;5071442;28;20025;-76
2021/06/07 03:10:22;;;;;;;12.68;2.92;;;19.00;44.50;;;;;;5053091;28;20036;-75
2021/06/07 03:12:49;;;;;;;11.32;3.38;;;18.80;45.20;;;;;;5067464;28;20035;-77
2021/06/07 03:15:17;;;;;;;13.65;3.65;;;18.70;44.90;;;;;;5062766;28;20104;-76
2021/06/07 03:17:45;;;;;;;10.77;3.25;;;18.50;46.10;;;;;;5066284;28;20058;-76
2021/06/07 03:20:14;;;;;;;13.85;3.00;;;18.40;46.30;;;;;;5071566;28;20427;-75
2021/06/07 03:22:40;;;;;;;13.27;4.30;;;18.30;47.20;;;;;;5077524;28;20021;-75
2021/06/07 03:25:09;;;;;;;17.67;3.05;;;18.10;47.10;;;;;;5077752;28;20029;-77
2021/06/07 03:27:37;;;;;;;14.07;3.15;;;17.90;47.90;;;;;;5062198;28;20028;-75
2021/06/07 03:30:06;;;;;;;6.80;2.45;;;17.80;48.20;;;;;;5047171;28;20025;-76
2021/06/07 03:32:32;;;;;;;16.90;4.63;;;17.60;48.70;;;;;;5075407;28;20100;-76
2021/06/07 03:34:59;;;;;;;13.02;3.13;;;17.60;48.60;;;;;;5072509;28;20020;-77
2021/06/07 03:37:26;;;;;;;17.10;3.75;;;17.50;48.70;;;;;;5058915;28;20029;-78
2021/06/07 03:39:52;;;;;;;9.85;3.30;;;17.50;48.80;;;;;;5058941;28;20031;-77
2021/06/07 03:42:19;;;;;;;15.50;3.45;;;17.50;48.30;;;;;;5074752;28;20025;-76
2021/06/07 03:44:45;;;;;;;10.88;3.17;;;17.40;48.10;;;;;;5073378;28;20029;-77
2021/06/07 03:47:11;;;;;;;5.32;2.40;;;17.30;49.10;;;;;;5071783;28;20448;-77
2021/06/07 03:49:38;;;;;;;8.98;4.22;;;17.30;48.30;;;;;;5061473;28;20112;-76
2021/06/07 03:52:04;;;;;;;11.98;2.95;;;17.40;49.20;;;;;;5069490;28;20032;-76
2021/06/07 03:54:31;;;;;;;13.63;2.90;;;17.20;48.60;;;;;;5061521;28;20460;-75
2021/06/07 03:56:57;;;;;;;11.32;2.38;;;17.20;49.10;;;;;;5061735;28;20037;-77
2021/06/07 03:59:24;;;;;;;14.68;4.00;;;17.10;48.70;;;;;;5072586;28;20035;-77
2021/06/07 04:01:50;;;;;;;13.57;4.15;;;17.00;48.90;;;;;;5075216;28;20053;-76
2021/06/07 04:04:17;;;;;;;20.13;3.00;;;16.80;49.40;;;;;;5063488;28;20033;-76
2021/06/07 04:06:43;;;;;;;9.52;3.40;;;17.00;49.30;;;;;;5042538;28;20041;-76
2021/06/07 04:09:09;;;;;;;15.40;4.00;;;17.00;48.50;;;;;;5061271;28;20036;-76
2021/06/07 04:11:36;;;;;;;9.40;2.55;;;17.00;48.70;;;;;;5062252;28;20024;-76
2021/06/07 04:14:02;;;;;;;11.75;4.35;;;17.00;49.30;;;;;;5066476;28;20029;-75
2021/06/07 04:16:29;;;;;;;20.17;4.40;;;16.90;49.40;;;;;;5071553;28;20032;-76
2021/06/07 04:18:55;;;;;;;14.88;3.08;;;17.10;49.10;;;;;;5072971;28;20502;-76
2021/06/07 04:21:22;;;;;;;23.90;4.30;;;17.00;48.40;;;;;;5072672;28;20040;-76
2021/06/07 04:23:48;;;;;;;12.23;2.70;;;16.90;49.20;;;;;;5073994;28;20028;-76
2021/06/07 04:26:14;;;;;;;12.13;3.63;;;16.90;49.00;;;;;;5056331;28;20036;-76
2021/06/07 04:28:41;;;;;;;12.00;2.97;;;17.10;48.90;;;;;;5056554;28;20028;-76
2021/06/07 04:31:07;;;;;;;12.80;2.65;;;16.90;49.00;;;;;;5076805;28;20020;-76
2021/06/07 04:33:34;;;;;;;20.55;4.32;;;17.00;49.20;;;;;;5077530;28;20029;-76
2021/06/07 04:36:00;;;;;;;4.72;2.03;;;17.20;48.50;;;;;;5059737;28;20016;-76
2021/06/07 04:38:27;;;;;;;8.18;2.75;;;17.20;48.40;;;;;;5076597;28;20051;-76
2021/06/07 04:40:53;;;;;;;6.97;2.53;;;17.30;48.10;;;;;;5077974;28;20024;-76
2021/06/07 04:43:20;;;;;;;8.98;2.22;;;17.40;48.10;;;;;;5077548;28;20348;-76
2021/06/07 04:45:46;;;;;;;6.88;3.65;;;17.30;48.30;;;;;;5077196;28;20036;-75
2021/06/07 04:48:14;;;;;;;7.03;1.95;;;17.40;48.10;;;;;;5051350;28;20027;-75
2021/06/07 04:50:40;;;;;;;16.10;3.63;;;17.50;48.30;;;;;;5076773;28;20035;-75
2021/06/07 04:53:10;;;;;;;7.93;2.55;;;17.50;47.80;;;;;;5073805;28;20526;-76
2021/06/07 04:55:43;;;;;;;8.35;3.65;;;17.40;47.70;;;;;;5076717;28;20031;-76
2021/06/07 04:58:13;;;;;;;9.45;3.55;;;17.40;48.50;;;;;;5062986;28;20423;-75
2021/06/07 05:00:42;;;;;;;12.57;4.05;;;17.30;49.00;;;;;;5053820;28;20477;-76
2021/06/07 05:03:08;;;;;;;15.73;3.45;;;17.20;48.90;;;;;;5076938;28;20020;-76
2021/06/07 05:05:35;;;;;;;21.05;5.18;;;17.10;49.10;;;;;;5051628;28;20074;-76
2021/06/07 05:08:03;;;;;;;8.90;3.45;;;17.00;49.90;;;;;;5071716;28;20449;-75
2021/06/07 05:10:30;;;;;;;13.20;2.85;;;17.10;50.10;;;;;;5063845;28;20024;-76
2021/06/07 05:12:56;;;;;;;16.80;4.88;;;17.10;50.70;;;;;;5062517;28;20503;-76
2021/06/07 05:15:23;;;;;;;15.07;3.78;;;17.00;50.60;;;;;;5061370;28;20025;-75
2021/06/07 05:17:50;;;;;;;14.45;3.70;;;17.10;50.00;;;;;;5069647;28;20032;-76
2021/06/07 05:20:19;;;;;;;8.25;1.98;;;16.90;49.90;;;;;;5066600;28;20033;-75
2021/06/07 05:22:46;;;;;;;9.85;4.35;;;16.80;50.50;;;;;;5052151;28;20036;-76
2021/06/07 05:25:13;;;;;;;14.23;4.10;;;16.80;51.10;;;;;;5069628;28;20120;-76
2021/06/07 05:27:40;;;;;;;13.68;4.32;;;16.70;50.50;;;;;;5047553;28;20035;-77
2021/06/07 05:30:07;;;;;;;20.45;4.63;;;16.50;51.90;;;;;;5050489;28;20055;-76
2021/06/07 05:32:34;;;;;;;12.70;2.88;;;16.60;51.90;;;;;;5076556;28;20021;-76
2021/06/07 05:35:01;;;;;;;19.27;4.88;;;16.70;51.70;;;;;;5071950;28;20409;-75
2021/06/07 05:37:28;;;;;;;17.90;4.55;;;16.80;51.40;;;;;;5058344;28;20384;-76
2021/06/07 05:39:55;;;;;;;16.63;3.83;;;16.70;52.40;;;;;;5053440;28;20090;-76
2021/06/07 05:42:21;;;;;;;13.65;3.53;;;16.80;52.50;;;;;;5069612;28;20021;-76
2021/06/07 05:44:47;;;;;;;19.23;3.60;;;16.70;51.90;;;;;;5062462;28;20032;-76
2021/06/07 05:47:14;;;;;;;20.80;3.03;;;16.50;53.10;;;;;;5047033;28;20449;-75
2021/06/07 05:49:40;;;;;;;18.63;3.78;;;16.60;53.10;;;;;;5056528;28;20159;-75
2021/06/07 05:52:09;;;;;;;9.77;4.03;;;16.50;52.20;;;;;;5064999;28;20404;-76
2021/06/07 05:54:37;;;;;;;8.13;3.83;;;16.50;53.30;;;;;;5061581;28;20021;-76
2021/06/07 05:57:06;;;;;;;8.55;3.40;;;16.40;52.50;;;;;;5071930;28;20028;-77
2021/06/07 05:59:35;;;;;;;7.18;3.05;;;16.40;53.60;;;;;;5053799;28;20032;-77
2021/06/07 06:02:09;;;;;;;11.15;3.65;;;16.40;54.30;;;;;;5067839;28;20040;-75
2021/06/07 06:04:35;;;;;;;8.38;2.38;;;16.40;53.80;;;;;;5073803;28;20037;-76
2021/06/07 06:07:04;;;;;;;10.20;2.25;;;16.10;53.20;;;;;;5073960;28;20032;-77
2021/06/07 06:09:31;;;;;;;8.10;2.38;;;16.10;53.70;;;;;;5073646;28;20127;-75
2021/06/07 06:11:57;;;;;;;15.15;2.90;;;15.80;53.30;;;;;;5075380;28;20058;-76
2021/06/07 06:14:25;;;;;;;6.13;2.95;;;15.90;53.40;;;;;;5068912;28;20025;-76
2021/06/07 06:16:52;;;;;;;17.88;4.03;;;15.80;52.90;;;;;;5071024;28;20086;-76
2021/06/07 06:19:19;;;;;;;7.22;2.55;;;15.80;53.50;;;;;;5068842;28;20026;-77
2021/06/07 06:21:45;;;;;;;10.50;2.58;;;15.90;53.30;;;;;;5061946;28;20032;-76
2021/06/07 06:24:13;;;;;;;4.68;2.20;;;15.90;53.90;;;;;;5063410;28;20042;-76
2021/06/07 06:26:42;;;;;;;11.80;4.22;;;16.00;54.60;;;;;;5074896;28;20471;-76
2021/06/07 06:29:09;;;;;;;12.38;4.47;;;15.80;55.50;;;;;;5072501;28;20067;-77
2021/06/07 06:31:36;;;;;;;17.40;4.03;;;15.80;55.00;;;;;;5071829;28;20130;-76
2021/06/07 06:34:03;;;;;;;12.45;2.72;;;16.00;55.70;;;;;;5061779;28;20108;-77
2021/06/07 06:36:30;;;;;;;7.60;2.55;;;16.00;56.00;;;;;;5059460;28;20020;-76
2021/06/07 06:38:57;;;;;;;11.07;3.28;;;15.90;55.50;;;;;;5073477;28;20108;-76
2021/06/07 06:41:24;;;;;;;10.90;3.47;;;16.00;55.90;;;;;;5070964;28;20024;-76
2021/06/07 06:43:50;;;;;;;14.68;3.00;;;16.10;56.20;;;;;;5041153;28;20052;-76
2021/06/07 06:46:17;;;;;;;13.27;3.17;;;16.00;56.40;;;;;;5061022;28;20024;-76
2021/06/07 06:48:43;;;;;;;17.45;2.28;;;16.00;56.20;;;;;;5074402;28;20024;-77
2021/06/07 06:51:11;;;;;;;16.33;2.95;;;15.90;56.20;;;;;;5057446;28;20452;-77
2021/06/07 06:53:37;;;;;;;22.08;4.50;;;15.80;56.00;;;;;;5072409;28;20103;-76
2021/06/07 06:56:04;;;;;;;10.98;4.45;;;15.80;56.80;;;;;;5068250;28;20052;-76
2021/06/07 06:58:30;;;;;;;11.15;3.33;;;15.80;56.10;;;;;;5055699;28;20025;-77
2021/06/07 07:00:57;;;;;;;11.73;3.35;;;15.90;56.70;;;;;;5055629;28;20452;-77
2021/06/07 07:03:23;;;;;;;12.90;3.50;;;16.00;56.80;;;;;;5061238;28;20459;-76
2021/06/07 07:05:50;;;;;;;11.82;3.10;;;15.90;56.30;;;;;;5058998;28;20035;-76
2021/06/07 07:08:19;;;;;;;5.82;2.53;;;15.90;57.10;;;;;;5070159;28;20028;-76
2021/06/07 07:10:46;;;;;;;12.52;3.17;;;15.90;56.90;;;;;;5062304;28;20017;-76
2021/06/07 07:13:13;;;;;;;14.52;4.88;;;15.80;56.50;;;;;;5037251;28;20032;-76
2021/06/07 07:15:40;;;;;;;6.05;2.97;;;15.80;57.30;;;;;;5074115;28;20017;-76
2021/06/07 07:18:08;;;;;;;11.43;2.92;;;15.90;57.30;;;;;;5070700;28;20063;-76
2021/06/07 07:20:36;;;;;;;13.80;3.65;;;15.80;58.00;;;;;;5073070;28;20036;-76
2021/06/07 07:23:04;;;;;;;10.38;1.80;;;15.70;57.70;;;;;;5068103;28;20028;-76
2021/06/07 07:25:31;;;;;;;28.55;5.05;;;15.60;58.20;;;;;;5070800;28;20028;-76
2021/06/07 07:27:57;;;;;;;14.52;2.45;;;15.70;58.00;;;;;;5048039;28;20043;-76
2021/06/07 07:30:27;;;;;;;12.93;3.38;;;15.70;58.40;;;;;;5045005;28;20029;-76
2021/06/07 07:32:55;;;;;;;15.35;3.70;;;15.60;58.50;;;;;;5059436;28;20074;-77
2021/06/07 07:35:22;;;;;;;13.40;3.78;;;15.60;58.80;;;;;;5062366;28;20470;-76
2021/06/07 07:37:49;;;;;;;16.35;3.20;;;15.40;59.00;;;;;;5056867;28;20031;-76
2021/06/07 07:40:19;;;;;;;8.90;4.95;;;15.50;58.80;;;;;;5073602;28;20028;-76
2021/06/07 07:42:47;;;;;;;12.43;3.40;;;15.50;58.60;;;;;;5063634;28;20048;-76
2021/06/07 07:45:15;;;;;;;24.92;4.82;;;15.60;59.10;;;;;;5074409;28;20071;-76
2021/06/07 07:47:42;;;;;;;16.00;2.85;;;15.50;58.60;;;;;;5073846;28;20021;-76
2021/06/07 07:50:12;;;;;;;10.02;2.75;;;15.50;58.40;;;;;;5060185;28;20025;-76
2021/06/07 07:52:41;;;;;;;10.95;3.30;;;15.50;58.20;;;;;;5073207;28;20107;-76
2021/06/07 07:55:13;;;;;;;17.63;3.17;;;15.40;58.20;;;;;;5055530;28;20074;-76
2021/06/07 07:57:41;;;;;;;16.77;2.55;;;15.50;58.40;;;;;;5061618;28;20365;-78
2021/06/07 08:00:12;;;;;;;15.70;5.13;;;15.40;58.20;;;;;;5067274;28;20024;-78
2021/06/07 08:02:39;;;;;;;6.70;2.58;;;15.50;58.80;;;;;;5071638;28;20352;-76
2021/06/07 08:05:09;;;;;;;12.85;3.92;;;15.40;58.80;;;;;;5061615;28;20028;-76
2021/06/07 08:07:36;;;;;;;14.73;3.47;;;15.40;58.90;;;;;;5061826;28;20021;-76
2021/06/07 08:10:04;;;;;;;9.68;2.90;;;15.60;58.40;;;;;;5059230;28;20062;-76
2021/06/07 08:12:30;;;;;;;7.53;2.67;;;15.50;58.50;;;;;;5058129;28;20100;-76
2021/06/07 08:14:57;;;;;;;15.38;4.40;;;15.50;59.20;;;;;;5076307;28;20024;-76
2021/06/07 08:17:24;;;;;;;11.95;2.65;;;15.60;58.90;;;;;;5077118;28;20035;-76
2021/06/07 08:19:50;;;;;;;14.90;4.10;;;15.60;58.90;;;;;;5075495;28;20379;-76
2021/06/07 08:22:18;;;;;;;5.93;2.33;;;15.60;58.90;;;;;;5073119;28;20042;-76
2021/06/07 08:24:45;;;;;;;12.07;2.53;;;15.50;58.40;;;;;;5071371;28;20033;-76
2021/06/07 08:27:12;;;;;;;16.20;4.95;;;15.50;58.70;;;;;;5071888;28;20028;-76
2021/06/07 08:29:39;;;;;;;11.18;3.90;;;15.40;58.40;;;;;;5057181;28;20033;-76
2021/06/07 08:32:06;;;;;;;13.05;3.30;;;15.30;58.80;;;;;;5064109;28;20082;-76
2021/06/07 08:34:33;;;;;;;9.52;2.20;;;15.00;59.60;;;;;;5047823;28;20452;-76
2021/06/07 08:37:00;;;;;;;10.48;2.50;;;15.10;58.90;;;;;;5072999;28;20025;-76
2021/06/07 08:39:27;;;;;;;15.02;3.53;;;15.00;59.30;;;;;;5067611;28;20111;-76
2021/06/07 08:41:53;;;;;;;13.25;2.50;;;15.40;58.80;;;;;;5072659;28;20086;-77
2021/06/07 08:44:20;;;;;;;17.90;3.78;;;15.40;59.20;;;;;;5043609;28;20029;-76
2021/06/07 08:46:47;;;;;;;4.63;2.53;;;15.50;59.20;;;;;;5061265;28;20033;-76
2021/06/07 08:49:13;;;;;;;15.68;2.42;;;15.60;59.50;;;;;;5053512;28;20029;-76
2021/06/07 08:51:40;;;;;;;8.48;2.97;;;15.50;59.70;;;;;;5069977;28;20094;-76
2021/06/07 08:54:07;;;;;;;8.35;2.35;;;15.40;59.30;;;;;;5056934;28;20459;-76
2021/06/07 08:56:34;;;;;;;10.50;4.20;;;15.50;59.70;;;;;;5058097;28;20033;-76
2021/06/07 08:59:01;;;;;;;14.45;2.70;;;15.30;59.70;;;;;;5074983;28;20479;-76
2021/06/07 09:01:27;;;;;;;15.60;4.53;;;15.40;59.70;;;;;;5059916;28;20448;-77
2021/06/07 09:03:54;;;;;;;11.75;2.20;;;15.40;59.50;;;;;;5039301;28;20025;-76
2021/06/07 09:06:25;;;;;;;17.40;2.97;;;15.40;59.60;;;;;;5065031;28;20112;-76
2021/06/07 09:09:04;;;;;;;18.05;2.75;;;15.40;60.30;;;;;;5044666;28;20032;-77
2021/06/07 09:11:40;;;;;;;6.38;2.75;;;15.30;60.00;;;;;;5039416;28;20029;-77
2021/06/07 09:14:20;;;;;;;15.07;2.45;;;15.40;60.30;;;;;;5057059;28;20104;-77
2021/06/07 09:16:47;;;;;;;13.07;3.60;;;15.40;61.00;;;;;;5045069;28;20032;-76
2021/06/07 09:19:30;;;;;;;11.20;2.80;;;15.30;60.00;;;;;;5060017;28;20350;-77
2021/06/07 09:22:22;;;;;;;13.93;3.22;;;15.40;59.80;;;;;;5070126;28;20670;-77
2021/06/07 09:25:09;;;;;;;12.02;2.72;;;15.40;59.00;;;;;;5069721;28;20034;-76
2021/06/07 09:27:37;;;;;;;7.78;2.70;;;15.30;59.60;;;;;;5063131;28;20078;-77
2021/06/07 09:30:26;;;;;;;10.75;2.40;;;15.30;59.20;;;;;;5042191;28;20526;-77
2021/06/07 09:33:33;;;;;;;11.70;3.08;;;15.10;59.60;;;;;;5045765;28;20112;-76
2021/06/07 09:36:27;;;;;;;7.60;2.70;;;15.30;60.30;;;;;;5062164;28;20021;-76
2021/06/07 09:39:13;;;;;;;17.67;2.78;;;15.10;60.90;;;;;;5055930;28;20063;-77
2021/06/07 09:41:48;;;;;;;8.70;3.25;;;15.00;59.90;;;;;;5059689;28;20029;-76
2021/06/07 09:44:23;;;;;;;15.60;3.13;;;15.00;60.70;;;;;;5065981;28;20039;-77
2021/06/07 09:46:51;;;;;;;15.93;3.42;;;15.00;60.60;;;;;;5057967;28;20055;-77
2021/06/07 09:49:21;;;;;;;15.88;2.85;;;15.00;61.20;;;;;;5039965;28;20342;-77
2021/06/07 09:51:59;;;;;;;8.45;1.88;;;15.10;60.00;;;;;;5067997;28;20359;-76
2021/06/07 09:54:27;;;;;;;14.43;3.25;;;15.10;59.70;;;;;;5075819;28;20069;-76
2021/06/07 09:56:58;;;;;;;6.85;1.38;;;15.10;60.00;;;;;;5072286;28;20550;-77
2021/06/07 09:59:31;;;;;;;5.28;2.33;;;15.10;59.50;;;;;;5059432;28;20028;-77
2021/06/07 10:01:59;;;;;;;5.97;1.95;;;15.20;59.10;;;;;;5059322;28;20031;-77
2021/06/07 10:04:50;;;;;;;10.63;3.63;;;15.20;59.60;;;;;;5075571;28;20052;-76
2021/06/07 10:07:18;;;;;;;8.80;2.45;;;15.00;59.60;;;;;;5061338;28;20043;-77
2021/06/07 10:10:20;;;;;;;13.80;2.80;;;14.90;59.80;;;;;;5055326;28;20031;-76
2021/06/07 10:12:47;;;;;;;8.07;3.07;;;14.90;59.40;;;;;;5039370;28;20047;-76
2021/06/07 10:15:42;;;;;;;10.65;2.22;;;15.00;59.70;;;;;;5070947;28;20021;-76
2021/06/07 10:18:20;;;;;;;7.03;2.35;;;15.10;58.90;;;;;;5067444;28;20029;-77
2021/06/07 10:20:54;;;;;;;11.52;1.90;;;15.00;59.30;;;;;;5055037;28;20487;-76
2021/06/07 10:23:27;;;;;;;17.15;2.90;;;14.90;59.70;;;;;;5057881;28;20037;-77
2021/06/07 10:25:55;;;;;;;11.07;2.85;;;15.00;59.30;;;;;;5075284;28;20040;-77
2021/06/07 10:28:27;;;;;;;14.98;3.05;;;15.00;58.80;;;;;;5071022;28;20036;-76
2021/06/07 10:30:56;;;;;;;14.20;3.47;;;15.00;59.00;;;;;;5075003;28;20028;-76
2021/06/07 10:33:35;;;;;;;17.65;2.58;;;15.10;58.80;;;;;;5051218;28;20021;-76
2021/06/07 10:36:45;;;;;;;5.90;2.13;;;15.40;58.50;;;;;;5071935;28;20479;-76
2021/06/07 10:39:18;;;;;;;10.50;2.25;;;15.30;58.90;;;;;;5013126;28;20037;-76
2021/06/07 10:42:14;;;;;;;16.90;2.13;;;15.50;59.50;;;;;;4994204;28;20034;-77
2021/06/07 10:44:53;;;;;;;12.65;2.58;;;15.50;60.10;;;;;;5047698;28;20040;-76
2021/06/07 10:47:25;;;;;;;9.02;2.78;;;15.40;59.50;;;;;;5060719;28;20017;-76
2021/06/07 10:50:07;;;;;;;11.48;2.55;;;15.50;60.20;;;;;;5054662;28;20035;-76
2021/06/07 10:52:57;;;;;;;17.25;3.35;;;15.40;59.80;;;;;;5055938;28;20033;-76
2021/06/07 10:55:35;;;;;;;10.63;2.55;;;15.30;60.40;;;;;;5074277;28;20091;-76
2021/06/07 10:58:05;;;;;;;13.85;3.50;;;15.20;59.80;;;;;;5069462;28;20379;-76
2021/06/07 11:00:37;;;;;;;17.50;4.40;;;15.20;60.10;;;;;;5060552;28;20021;-76
2021/06/07 11:03:12;;;;;;;16.20;2.55;;;15.00;59.70;;;;;;5054824;28;20029;-76
2021/06/07 11:05:39;;;;;;;7.30;2.03;;;15.00;60.00;;;;;;5057121;28;20065;-77
2021/06/07 11:08:21;;;;;;;14.02;2.92;;;14.80;59.60;;;;;;5069131;28;20028;-77
2021/06/07 11:11:14;;;;;;;7.32;2.72;;;14.80;60.20;;;;;;5067759;28;20029;-76
2021/06/07 11:14:00;;;;;;;15.25;2.75;;;14.70;60.00;;;;;;5060599;28;20017;-76
2021/06/07 11:16:29;;;;;;;19.05;2.58;;;14.80;60.10;;;;;;5063519;28;20365;-76
2021/06/07 11:19:03;;;;;;;4.53;3.13;;;14.90;60.50;;;;;;5036925;28;20032;-77
2021/06/07 11:21:52;;;;;;;13.45;5.13;;;14.80;59.70;;;;;;5060422;28;20024;-76
2021/06/07 11:24:37;;;;;;;23.98;2.97;;;14.70;60.80;;;;;;5046663;28;20040;-76
2021/06/07 11:27:06;;;;;;;8.15;2.28;;;14.80;60.60;;;;;;5059918;28;20029;-76
2021/06/07 11:29:33;;;;;;;9.80;3.20;;;14.70;60.40;;;;;;5054296;28;20108;-77
2021/06/07 11:32:02;;;;;;;11.65;2.55;;;14.60;60.40;;;;;;5060538;28;20020;-76
2021/06/07 11:34:49;;;;;;;5.22;2.22;;;14.50;61.30;;;;;;5074045;28;20096;-76
2021/06/07 11:37:36;;;;;;;6.45;1.98;;;14.40;61.60;;;;;;5072825;28;20078;-76
2021/06/07 11:40:08;;;;;;;6.85;2.53;;;14.40;61.10;;;;;;5057481;28;20029;-76
2021/06/07 11:42:56;;;;;;;7.85;2.50;;;14.30;61.50;;;;;;5069139;28;20479;-76
2021/06/07 11:45:43;;;;;;;5.25;1.70;;;14.40;60.50;;;;;;5073894;28;20063;-76
2021/06/07 11:48:11;;;;;;;12.68;2.65;;;14.30;60.80;;;;;;5076897;28;20025;-76
2021/06/07 11:50:41;;;;;;;12.45;3.33;;;14.30;60.30;;;;;;5069789;28;20112;-76
2021/06/07 11:53:14;;;;;;;7.57;4.65;;;14.30;60.70;;;;;;5041726;28;20033;-76
2021/06/07 11:55:41;;;;;;;7.40;2.63;;;14.30;60.60;;;;;;5060775;28;20032;-76
2021/06/07 11:58:26;;;;;;;7.40;2.33;;;14.30;60.30;;;;;;5078184;28;20056;-76
2021/06/07 12:00:57;;;;;;;8.07;1.67;;;14.20;60.90;;;;;;5071272;28;20057;-78
2021/06/07 12:03:26;;;;;;;11.80;2.25;;;14.10;60.90;;;;;;5053496;28;20539;-76
2021/06/07 12:05:53;;;;;;;13.57;2.05;;;14.00;61.60;;;;;;5078856;28;20078;-76
2021/06/07 12:08:22;;;;;;;6.32;2.35;;;14.20;60.80;;;;;;5049964;28;20025;-77
2021/06/07 12:10:56;;;;;;;5.30;1.55;;;14.10;60.60;;;;;;5043227;28;20123;-76
2021/06/07 12:13:34;;;;;;;5.28;2.05;;;14.10;60.80;;;;;;5073361;28;20027;-76
2021/06/07 12:16:08;;;;;;;7.72;3.53;;;14.10;61.00;;;;;;5040497;28;20117;-76
2021/06/07 12:18:39;;;;;;;5.10;1.80;;;14.10;60.40;;;;;;5070236;28;20349;-76
2021/06/07 12:21:19;;;;;;;3.22;1.40;;;14.10;60.60;;;;;;5059534;28;20036;-76
2021/06/07 12:23:54;;;;;;;11.63;3.25;;;14.10;59.50;;;;;;5062847;28;20025;-76
2021/06/07 12:29:31;;;;;;;6.30;1.75;;;14.40;59.80;;;;;;5070077;28;20364;-76
2021/06/07 12:32:03;;;;;;;2.35;1.45;;;14.40;59.80;;;;;;5074821;28;20025;-76
2021/06/07 12:34:30;;;;;;;5.78;1.55;;;14.50;59.60;;;;;;5062349;28;20025;-76
2021/06/07 12:36:56;;;;;;;7.47;2.55;;;14.50;60.10;;;;;;5079518;28;20028;-76
2021/06/07 12:39:23;;;;;;;10.45;3.78;;;14.60;59.80;;;;;;5079243;28;20025;-76
2021/06/07 12:41:50;;;;;;;5.13;1.80;;;14.60;59.50;;;;;;5077621;28;20052;-76
2021/06/07 12:44:24;;;;;;;4.68;1.42;;;14.60;59.80;;;;;;5060434;28;20482;-76
2021/06/07 12:46:55;;;;;;;10.73;3.15;;;14.70;59.60;;;;;;5073493;28;20497;-76
2021/06/07 12:49:26;;;;;;;10.30;2.58;;;14.70;59.70;;;;;;5059043;28;20137;-76
2021/06/07 12:52:04;;;;;;;7.82;2.17;;;14.60;59.60;;;;;;5058176;28;20017;-76
2021/06/07 12:54:32;;;;;;;5.25;1.85;;;14.50;60.00;;;;;;5074629;28;20340;-76
2021/06/07 12:57:00;;;;;;;4.85;2.33;;;14.60;59.70;;;;;;5077021;28;20025;-76
2021/06/07 12:59:29;;;;;;;6.53;3.30;;;14.70;59.90;;;;;;5068608;28;20029;-76
2021/06/07 13:01:57;;;;;;;3.50;1.70;;;14.70;59.20;;;;;;5050322;28;20028;-76